Time;durP1;ratioP1;P1;durP2;ratioP2;P2;SDS_P1;SDS_P2;PMS_P1;PMS_P2;Temp;Humidity;BMP_temperature;BMP_pressure;BME280_temperature;BME280_humidity;BME280_pressure;Samples;Min_cycle;Max_cycle;Signal;HPM_P1;HPM_P2
2021/08/08 00:00:47;;;;;;;6.75;1.90;;;;;;;27.13;52.09;100656.47;5009297;28;20510;-72
2021/08/08 00:03:16;;;;;;;12.52;1.92;;;;;;;27.13;52.19;100659.19;5010807;28;20403;-70
2021/08/08 00:05:43;;;;;;;10.50;2.20;;;;;;;27.12;52.30;100666.44;5009950;28;20046;-69
2021/08/08 00:08:11;;;;;;;8.32;2.00;;;;;;;27.08;52.44;100654.00;5010775;28;20046;-71
2021/08/08 00:10:38;;;;;;;10.55;2.22;;;;;;;27.08;52.53;100626.03;5009611;28;20056;-71
2021/08/08 00:13:06;;;;;;;8.10;2.22;;;;;;;27.07;52.09;100616.16;5009055;28;20053;-71
2021/08/08 00:15:34;;;;;;;12.57;2.40;;;;;;;27.09;52.23;100616.94;5010387;28;21085;-70
2021/08/08 00:18:03;;;;;;;6.05;2.22;;;;;;;27.07;52.32;100611.59;5010512;28;20096;-71
2021/08/08 00:20:32;;;;;;;7.10;3.35;;;;;;;27.11;52.26;100628.59;5010180;28;20061;-71
2021/08/08 00:22:59;;;;;;;9.30;2.53;;;;;;;27.11;52.18;100625.88;5009753;28;20046;-71
2021/08/08 00:25:26;;;;;;;9.75;2.55;;;;;;;27.08;52.64;100637.75;5009271;28;20515;-71
2021/08/08 00:27:54;;;;;;;10.75;2.20;;;;;;;27.03;53.04;100633.53;5009923;28;20037;-71
2021/08/08 00:30:22;;;;;;;7.78;2.60;;;;;;;27.04;53.15;100640.72;5009738;28;20385;-71
2021/08/08 00:32:49;;;;;;;7.70;2.22;;;;;;;27.05;53.09;100639.72;5010003;28;20042;-71
2021/08/08 00:35:16;;;;;;;9.98;2.67;;;;;;;27.07;53.05;100643.25;5010119;28;20046;-70
2021/08/08 00:37:45;;;;;;;7.32;2.60;;;;;;;27.04;53.33;100628.03;5010133;28;20053;-70
2021/08/08 00:40:15;;;;;;;6.20;2.20;;;;;;;27.04;53.15;100635.31;5010487;28;20045;-72
2021/08/08 00:42:45;;;;;;;9.38;2.20;;;;;;;26.99;53.42;100635.53;5011069;28;20049;-72
2021/08/08 00:45:14;;;;;;;6.80;2.15;;;;;;;26.95;53.55;100632.13;5010356;28;20038;-72
2021/08/08 00:47:44;;;;;;;6.93;2.95;;;;;;;26.96;53.58;100633.00;5010218;28;20038;-72
2021/08/08 00:50:13;;;;;;;10.63;3.13;;;;;;;26.93;53.69;100641.28;5010654;28;20072;-71
2021/08/08 00:52:40;;;;;;;8.55;2.28;;;;;;;26.91;53.85;100643.22;5010558;28;20042;-71
2021/08/08 00:55:11;;;;;;;7.63;2.45;;;;;;;26.88;54.42;100638.78;5009798;28;20040;-71
2021/08/08 00:57:40;;;;;;;9.25;2.80;;;;;;;26.86;54.58;100638.00;5010324;28;20045;-72
2021/08/08 01:00:09;;;;;;;8.85;2.50;;;;;;;26.85;55.03;100644.38;5008933;28;20049;-72
2021/08/08 01:02:42;;;;;;;8.50;2.50;;;;;;;26.85;55.06;100635.34;4995615;28;20053;-71
2021/08/08 01:05:14;;;;;;;5.95;2.60;;;;;;;26.87;55.00;100620.78;5009487;28;20067;-72
2021/08/08 01:07:48;;;;;;;7.93;2.50;;;;;;;26.86;54.72;100613.59;5009488;28;20073;-72
2021/08/08 01:10:19;;;;;;;7.63;2.50;;;;;;;26.86;55.24;100602.78;5008589;28;20045;-71
2021/08/08 01:12:49;;;;;;;8.60;2.65;;;;;;;26.82;55.25;100614.75;5008872;28;20431;-71
2021/08/08 01:15:17;;;;;;;14.70;2.72;;;;;;;26.78;55.73;100615.00;5009505;28;20046;-71
2021/08/08 01:17:45;;;;;;;5.60;2.17;;;;;;;26.79;55.93;100623.03;5008712;28;20053;-71
2021/08/08 01:20:15;;;;;;;8.95;2.80;;;;;;;26.76;55.65;100634.03;5009504;28;20053;-72
2021/08/08 01:22:46;;;;;;;5.63;2.50;;;;;;;26.73;55.78;100631.47;5009324;28;20065;-72
2021/08/08 01:25:15;;;;;;;11.20;2.78;;;;;;;26.71;56.14;100630.72;5009424;28;20077;-73
2021/08/08 01:27:43;;;;;;;9.02;2.78;;;;;;;26.72;56.17;100634.25;5009353;28;20041;-72
2021/08/08 01:30:11;;;;;;;9.15;2.45;;;;;;;26.71;56.25;100633.41;5008638;28;20519;-73
2021/08/08 01:32:39;;;;;;;8.52;2.38;;;;;;;26.71;56.68;100624.41;5009320;28;20468;-69
2021/08/08 01:35:07;;;;;;;6.28;2.70;;;;;;;26.69;57.02;100629.03;5008216;28;20042;-71
2021/08/08 01:37:34;;;;;;;5.65;2.30;;;;;;;26.67;56.83;100637.22;4991893;28;20542;-72
2021/08/08 01:40:07;;;;;;;8.05;2.42;;;;;;;26.68;57.46;100630.84;5008999;28;20053;-73
2021/08/08 01:42:39;;;;;;;8.43;2.75;;;;;;;26.70;57.57;100642.50;5012300;28;20046;-72
2021/08/08 01:45:09;;;;;;;9.00;2.63;;;;;;;26.67;57.51;100649.88;5012422;28;20038;-71
2021/08/08 01:47:39;;;;;;;9.23;3.15;;;;;;;26.65;57.86;100657.25;5011554;28;20053;-73
2021/08/08 01:50:07;;;;;;;10.85;2.78;;;;;;;26.61;57.86;100659.22;5011859;28;20048;-71
2021/08/08 01:52:36;;;;;;;8.05;2.83;;;;;;;26.63;58.00;100659.16;5012368;28;20050;-72
2021/08/08 01:55:04;;;;;;;6.63;2.85;;;;;;;26.56;58.42;100648.63;5011321;28;20053;-73
2021/08/08 01:57:34;;;;;;;7.70;2.60;;;;;;;26.56;58.34;100632.38;5012331;28;20120;-72
2021/08/08 02:00:05;;;;;;;11.52;2.80;;;;;;;26.55;58.57;100632.47;4964224;28;1395654;-71
2021/08/08 02:02:32;;;;;;;9.05;3.58;;;;;;;26.54;58.44;100647.81;5013783;28;20038;-72
2021/08/08 02:05:00;;;;;;;8.93;3.00;;;;;;;26.53;58.56;100659.63;5013585;28;20045;-72
2021/08/08 02:07:27;;;;;;;8.57;3.00;;;;;;;26.54;58.06;100668.63;5012951;28;20042;-73
2021/08/08 02:09:55;;;;;;;7.28;3.08;;;;;;;26.52;58.03;100665.97;5012501;28;20046;-72
2021/08/08 02:12:24;;;;;;;9.35;2.97;;;;;;;26.53;57.89;100662.31;5012873;28;20038;-71
2021/08/08 02:14:52;;;;;;;6.72;2.60;;;;;;;26.50;58.10;100646.25;5013233;28;20044;-71
2021/08/08 02:17:21;;;;;;;7.65;2.70;;;;;;;26.52;58.51;100635.31;5011648;28;20049;-72
2021/08/08 02:19:49;;;;;;;7.47;2.50;;;;;;;26.49;58.55;100620.13;5013499;28;20037;-72
2021/08/08 02:22:16;;;;;;;10.93;2.97;;;;;;;26.49;58.65;100632.78;5012972;28;20157;-71
2021/08/08 02:24:44;;;;;;;9.15;2.70;;;;;;;26.45;58.52;100633.91;5012705;28;20060;-73
2021/08/08 02:27:11;;;;;;;9.55;3.13;;;;;;;26.45;58.57;100629.34;5012869;28;20049;-72
2021/08/08 02:29:39;;;;;;;10.25;2.58;;;;;;;26.43;58.89;100641.22;5012819;28;20046;-72
2021/08/08 02:32:07;;;;;;;7.40;2.70;;;;;;;26.36;59.31;100640.66;5013482;28;20053;-72
2021/08/08 02:34:35;;;;;;;9.45;2.67;;;;;;;26.35;59.54;100644.31;5012235;28;20042;-72
2021/08/08 02:37:03;;;;;;;7.20;2.78;;;;;;;26.36;59.75;100635.25;4995061;28;20487;-73
2021/08/08 02:39:30;;;;;;;7.75;2.80;;;;;;;26.36;59.78;100624.44;5012833;28;20045;-71
2021/08/08 02:41:58;;;;;;;9.23;2.97;;;;;;;26.37;60.19;100638.84;5012653;28;20064;-73
2021/08/08 02:44:25;;;;;;;8.77;3.33;;;;;;;26.32;60.12;100630.94;5012708;28;20038;-72
2021/08/08 02:46:52;;;;;;;10.02;3.00;;;;;;;26.30;60.24;100630.16;5012430;28;20042;-72
2021/08/08 02:49:20;;;;;;;13.02;2.90;;;;;;;26.28;60.15;100628.47;5012609;28;20038;-71
2021/08/08 02:51:49;;;;;;;5.80;2.55;;;;;;;26.27;60.47;100637.53;5012071;28;20041;-74
2021/08/08 02:54:17;;;;;;;7.22;2.63;;;;;;;26.26;60.40;100638.50;5012587;28;20038;-72
2021/08/08 02:56:45;;;;;;;8.40;3.33;;;;;;;26.24;60.35;100643.09;5013455;28;20046;-71
2021/08/08 02:59:12;;;;;;;7.68;2.63;;;;;;;26.24;60.59;100653.94;5011826;28;20046;-71
2021/08/08 03:01:39;;;;;;;10.77;2.67;;;;;;;26.24;60.53;100664.75;5011944;28;20408;-72
2021/08/08 03:04:07;;;;;;;6.97;2.85;;;;;;;26.25;60.95;100662.00;5012290;28;20041;-73
2021/08/08 03:06:34;;;;;;;9.45;2.50;;;;;;;26.26;60.72;100663.72;5012310;28;20042;-72
2021/08/08 03:09:03;;;;;;;7.93;2.50;;;;;;;26.27;60.64;100648.38;5012566;28;20037;-72
2021/08/08 03:11:30;;;;;;;6.72;2.75;;;;;;;26.24;60.75;100662.03;5012319;28;20046;-72
2021/08/08 03:13:57;;;;;;;11.05;2.92;;;;;;;26.20;61.00;100678.44;4993754;28;20049;-72
2021/08/08 03:16:25;;;;;;;9.95;3.05;;;;;;;26.22;61.16;100691.00;5012278;28;20504;-73
2021/08/08 03:18:52;;;;;;;13.25;3.10;;;;;;;26.24;61.50;100699.94;5011127;28;20049;-72
2021/08/08 03:21:20;;;;;;;7.15;3.00;;;;;;;26.23;61.38;100700.88;5012080;28;20038;-72
2021/08/08 03:23:47;;;;;;;9.77;2.80;;;;;;;26.23;61.64;100687.34;5012400;28;20042;-72
2021/08/08 03:26:16;;;;;;;10.65;3.78;;;;;;;26.26;61.00;100681.81;5012207;28;20042;-72
2021/08/08 03:28:43;;;;;;;6.50;2.83;;;;;;;26.26;60.70;100684.50;5011624;28;20491;-72
2021/08/08 03:31:11;;;;;;;9.00;2.67;;;;;;;26.25;60.88;100686.38;5011726;28;20483;-72
2021/08/08 03:33:39;;;;;;;11.68;2.97;;;;;;;26.25;61.11;100697.19;5011579;28;20034;-72
2021/08/08 03:36:06;;;;;;;15.52;3.42;;;;;;;26.24;61.01;100684.63;5012174;28;20045;-71
2021/08/08 03:38:34;;;;;;;13.38;3.10;;;;;;;26.24;61.06;100713.47;4994847;28;20557;-72
2021/08/08 03:41:01;;;;;;;14.73;2.80;;;;;;;26.28;60.70;100723.22;5011074;28;20049;-72
2021/08/08 03:43:30;;;;;;;7.38;2.72;;;;;;;26.32;60.68;100735.66;5011307;28;20543;-72
2021/08/08 03:45:58;;;;;;;10.02;2.88;;;;;;;26.36;61.04;100738.13;5011223;28;20042;-72
2021/08/08 03:48:25;;;;;;;6.15;2.90;;;;;;;26.45;60.69;100745.78;5011318;28;20049;-71
2021/08/08 03:50:53;;;;;;;7.00;2.58;;;;;;;26.55;60.81;100741.66;5011315;28;20065;-73
2021/08/08 03:53:20;;;;;;;8.38;2.70;;;;;;;26.68;60.30;100738.31;5011542;28;20060;-71
2021/08/08 03:55:47;;;;;;;8.23;2.28;;;;;;;26.76;59.79;100728.88;5010536;28;20403;-71
2021/08/08 03:58:15;;;;;;;9.63;2.50;;;;;;;26.84;58.87;100734.78;5012421;28;20041;-72
2021/08/08 04:00:44;;;;;;;8.45;2.13;;;;;;;26.95;58.28;100737.81;5010406;28;20057;-73
2021/08/08 04:03:11;;;;;;;11.23;2.70;;;;;;;27.09;57.70;100752.47;5010757;28;20447;-72
2021/08/08 04:05:38;;;;;;;6.18;2.25;;;;;;;27.21;57.13;100738.25;5010702;28;20072;-71
2021/08/08 04:08:07;;;;;;;7.28;2.50;;;;;;;27.30;56.61;100732.34;5010930;28;20499;-72
2021/08/08 04:10:35;;;;;;;5.22;1.92;;;;;;;27.41;56.56;100729.03;5011358;28;20072;-71
2021/08/08 04:13:02;;;;;;;5.97;1.95;;;;;;;27.52;56.48;100716.69;5011524;28;20052;-71
2021/08/08 04:15:29;;;;;;;8.60;2.10;;;;;;;27.64;56.34;100716.00;5009701;28;20038;-72
2021/08/08 04:17:58;;;;;;;8.77;2.45;;;;;;;27.79;56.07;100738.69;5011060;28;20045;-71
2021/08/08 04:20:26;;;;;;;5.25;2.03;;;;;;;27.87;55.44;100769.00;5010563;28;20034;-72
2021/08/08 04:22:53;;;;;;;8.95;2.53;;;;;;;28.00;55.43;100783.63;5010382;28;20038;-72
2021/08/08 04:25:21;;;;;;;4.57;1.92;;;;;;;28.18;55.03;100786.28;5010396;28;20061;-72
2021/08/08 04:27:48;;;;;;;5.43;1.98;;;;;;;28.34;54.39;100781.75;5011530;28;20542;-70
2021/08/08 04:30:15;;;;;;;8.70;2.17;;;;;;;28.46;53.88;100764.72;5010098;28;20041;-68
2021/08/08 04:32:43;;;;;;;8.15;2.10;;;;;;;28.56;53.44;100744.19;5010729;28;20385;-72
2021/08/08 04:35:12;;;;;;;5.47;1.70;;;;;;;28.71;52.68;100748.72;5010472;28;20530;-71
2021/08/08 04:37:39;;;;;;;7.68;1.90;;;;;;;28.79;52.06;100756.44;5009385;28;20042;-71
2021/08/08 04:40:07;;;;;;;6.28;2.42;;;;;;;28.86;51.45;100775.03;5010830;28;20046;-72
2021/08/08 04:42:37;;;;;;;8.10;1.80;;;;;;;28.95;50.66;100770.00;5011113;28;20042;-71
2021/08/08 04:45:04;;;;;;;5.57;1.88;;;;;;;29.03;49.87;100770.38;5009779;28;20092;-71
2021/08/08 04:47:32;;;;;;;6.55;2.00;;;;;;;29.19;49.58;100774.81;5003913;28;20456;-71
2021/08/08 04:49:59;;;;;;;5.68;1.63;;;;;;;29.36;48.95;100778.34;5009184;28;20042;-71
2021/08/08 04:52:34;;;;;;;4.20;1.65;;;;;;;29.52;48.17;100779.16;5010439;28;20038;-73
2021/08/08 04:55:02;;;;;;;4.63;1.50;;;;;;;29.63;48.08;100787.50;5009357;28;20045;-71
2021/08/08 04:57:29;;;;;;;10.30;1.70;;;;;;;29.74;47.45;100795.88;5009044;28;20057;-72
2021/08/08 04:59:57;;;;;;;7.82;2.20;;;;;;;29.89;47.24;100794.91;5010235;28;20042;-71
2021/08/08 05:02:24;;;;;;;7.25;2.20;;;;;;;30.08;47.10;100802.78;5009934;28;20507;-71
2021/08/08 05:04:51;;;;;;;6.95;1.83;;;;;;;30.23;46.83;100788.19;5009799;28;20042;-72
2021/08/08 05:07:19;;;;;;;7.45;2.30;;;;;;;30.27;46.52;100794.28;5010856;28;20042;-71
2021/08/08 05:09:48;;;;;;;8.80;2.15;;;;;;;30.36;46.23;100799.13;5010367;28;20049;-69
2021/08/08 05:12:15;;;;;;;8.85;1.98;;;;;;;30.55;46.22;100821.50;5010429;28;20523;-71
2021/08/08 05:14:43;;;;;;;5.10;1.63;;;;;;;30.75;45.98;100825.63;5010253;28;20042;-71
2021/08/08 05:17:11;;;;;;;12.55;2.30;;;;;;;31.00;46.04;100830.28;5010374;28;20125;-71
2021/08/08 05:19:38;;;;;;;10.73;2.20;;;;;;;31.15;45.20;100816.50;5009453;28;20042;-72
2021/08/08 05:22:05;;;;;;;8.20;2.10;;;;;;;31.29;44.95;100799.16;5009532;28;20050;-72
2021/08/08 05:24:33;;;;;;;12.40;2.10;;;;;;;31.42;44.29;100808.25;5009585;28;20059;-72
2021/08/08 05:27:02;;;;;;;7.85;2.05;;;;;;;31.60;43.54;100815.16;5009705;28;20041;-72
2021/08/08 05:29:29;;;;;;;6.90;1.90;;;;;;;31.76;43.49;100838.66;5009515;28;20110;-72
2021/08/08 05:31:56;;;;;;;10.43;2.10;;;;;;;31.95;43.25;100856.34;5008537;28;20044;-70
2021/08/08 05:34:24;;;;;;;6.68;1.90;;;;;;;32.18;42.89;100868.34;5009178;28;20048;-70
2021/08/08 05:36:51;;;;;;;9.32;1.98;;;;;;;32.21;41.73;100868.16;4991864;28;20045;-70
2021/08/08 05:39:19;;;;;;;6.93;1.73;;;;;;;32.46;41.53;100853.53;5008676;28;20046;-71
2021/08/08 05:41:46;;;;;;;11.45;1.67;;;;;;;32.68;40.62;100840.06;5010250;28;20038;-70
2021/08/08 05:44:15;;;;;;;7.40;1.90;;;;;;;32.76;39.93;100840.31;5009926;28;20042;-71
2021/08/08 05:46:42;;;;;;;9.13;1.77;;;;;;;32.99;39.66;100846.78;5009744;28;20404;-70
2021/08/08 05:49:10;;;;;;;7.88;1.58;;;;;;;33.24;39.47;100864.97;5020856;28;20500;-71
2021/08/08 05:51:40;;;;;;;5.47;1.80;;;;;;;33.32;39.14;100873.47;5024625;28;20137;-71
2021/08/08 05:54:07;;;;;;;6.78;1.50;;;;;;;33.49;38.59;100872.13;5016278;28;20064;-72
2021/08/08 05:56:35;;;;;;;8.23;1.30;;;;;;;33.63;38.49;100858.22;5015877;28;20041;-72
2021/08/08 05:59:02;;;;;;;9.60;1.35;;;;;;;33.68;37.67;100860.59;5017874;28;20041;-71
2021/08/08 06:01:31;;;;;;;4.90;1.38;;;;;;;33.82;37.52;100860.41;5010111;28;20041;-70
2021/08/08 06:03:59;;;;;;;7.45;1.70;;;;;;;33.91;37.33;100868.78;5018604;28;20045;-71
2021/08/08 06:06:28;;;;;;;6.78;1.40;;;;;;;34.03;36.97;100874.25;5012720;28;20103;-70
2021/08/08 06:08:56;;;;;;;5.18;1.40;;;;;;;34.07;36.88;100862.06;5022661;28;20045;-71
2021/08/08 06:11:23;;;;;;;7.28;1.35;;;;;;;34.05;36.54;100867.66;5026797;28;20041;-70
2021/08/08 06:13:50;;;;;;;5.45;2.03;;;;;;;34.08;35.86;100863.78;5016402;28;20038;-71
2021/08/08 06:16:18;;;;;;;7.53;1.40;;;;;;;34.11;35.83;100869.03;5009231;28;20495;-70
2021/08/08 06:18:47;;;;;;;5.85;2.05;;;;;;;34.31;36.02;100854.59;5019831;28;20124;-69
2021/08/08 06:21:14;;;;;;;9.93;1.75;;;;;;;34.47;35.75;100863.28;5012242;28;20044;-70
2021/08/08 06:23:42;;;;;;;8.35;1.33;;;;;;;34.65;35.77;100869.13;5027975;28;20442;-70
2021/08/08 06:26:09;;;;;;;5.20;1.35;;;;;;;34.89;35.42;100877.22;5009490;28;20046;-70
2021/08/08 06:28:36;;;;;;;5.10;1.20;;;;;;;35.21;35.18;100878.13;5016297;28;20061;-70
2021/08/08 06:31:04;;;;;;;8.82;1.65;;;;;;;35.40;34.62;100880.16;5012740;28;20495;-70
2021/08/08 06:33:31;;;;;;;4.53;1.40;;;;;;;35.46;34.31;100871.38;5012779;28;20054;-70
2021/08/08 06:36:00;;;;;;;9.77;1.50;;;;;;;35.49;33.94;100868.38;5028841;28;20410;-69
2021/08/08 06:38:27;;;;;;;14.23;2.00;;;;;;;35.25;34.33;100870.50;5032287;28;20048;-71
2021/08/08 06:40:55;;;;;;;8.45;1.30;;;;;;;34.92;34.49;100883.28;5030371;28;20046;-71
2021/08/08 06:43:22;;;;;;;8.50;1.40;;;;;;;34.74;34.48;100896.69;5013812;28;20041;-70
2021/08/08 06:45:50;;;;;;;7.45;1.35;;;;;;;34.82;34.48;100897.94;5012102;28;20070;-71
2021/08/08 06:48:18;;;;;;;5.28;1.50;;;;;;;34.96;34.52;100890.28;5013025;28;20381;-69
2021/08/08 06:50:45;;;;;;;10.30;1.35;;;;;;;35.08;34.53;100882.88;5012614;28;20137;-71
2021/08/08 06:53:14;;;;;;;5.43;1.30;;;;;;;35.24;34.21;100880.63;5013125;28;20407;-71
2021/08/08 06:55:41;;;;;;;5.88;1.45;;;;;;;35.30;34.21;100880.09;5009924;28;20039;-71
2021/08/08 06:58:09;;;;;;;9.13;2.00;;;;;;;35.32;34.03;100872.56;5019527;28;20049;-72
2021/08/08 07:00:36;;;;;;;12.82;2.10;;;;;;;35.38;33.91;100873.94;5011454;28;20057;-71
2021/08/08 07:03:03;;;;;;;7.25;1.58;;;;;;;35.58;33.85;100880.44;5016599;28;20045;-73
2021/08/08 07:05:30;;;;;;;4.80;1.48;;;;;;;35.67;33.62;100879.63;5013262;28;20060;-72
2021/08/08 07:07:58;;;;;;;7.55;1.30;;;;;;;35.68;33.41;100878.63;5024387;28;20041;-72
2021/08/08 07:10:26;;;;;;;3.90;1.52;;;;;;;35.78;33.28;100874.06;5019097;28;20048;-71
2021/08/08 07:12:54;;;;;;;5.45;1.45;;;;;;;35.82;33.13;100876.44;5010005;28;20399;-72
2021/08/08 07:15:21;;;;;;;6.25;1.40;;;;;;;35.99;33.20;100885.91;5010609;28;20046;-72
2021/08/08 07:17:49;;;;;;;4.47;1.35;;;;;;;35.91;33.19;100892.09;5012553;28;20399;-70
2021/08/08 07:20:16;;;;;;;9.00;1.85;;;;;;;36.06;32.76;100889.00;5015071;28;20038;-72
2021/08/08 07:22:44;;;;;;;6.38;1.60;;;;;;;35.86;33.08;100893.50;5013593;28;20041;-69
2021/08/08 07:25:11;;;;;;;2.88;1.23;;;;;;;35.72;32.74;100893.84;5008318;28;20672;-69
2021/08/08 07:27:40;;;;;;;4.97;1.50;;;;;;;35.76;32.58;100893.47;5008948;28;20053;-71
2021/08/08 07:30:08;;;;;;;7.07;1.63;;;;;;;35.68;32.66;100893.22;5015112;28;20056;-70
2021/08/08 07:32:38;;;;;;;3.55;1.20;;;;;;;35.72;33.11;100886.47;5014835;28;20054;-70
2021/08/08 07:35:06;;;;;;;5.85;1.20;;;;;;;35.85;33.00;100876.16;5021418;28;20048;-71
2021/08/08 07:37:33;;;;;;;6.63;1.30;;;;;;;35.95;32.81;100870.72;5015114;28;20048;-71
2021/08/08 07:40:00;;;;;;;4.82;1.27;;;;;;;36.00;32.81;100884.91;5023673;28;20046;-69
2021/08/08 07:42:28;;;;;;;6.68;1.50;;;;;;;36.08;32.18;100879.63;5009037;28;20053;-71
2021/08/08 07:44:57;;;;;;;3.00;1.02;;;;;;;36.15;32.00;100872.56;5009511;28;20435;-71
2021/08/08 07:47:24;;;;;;;3.15;1.33;;;;;;;36.17;31.84;100898.06;5010548;28;20034;-72
2021/08/08 07:49:52;;;;;;;4.18;1.05;;;;;;;36.22;31.97;100879.28;5025654;28;20045;-71
2021/08/08 07:52:19;;;;;;;5.38;1.25;;;;;;;36.25;31.55;100883.63;5022595;28;20045;-69
2021/08/08 07:54:47;;;;;;;5.97;1.30;;;;;;;36.21;31.71;100884.91;4992702;28;20042;-72
2021/08/08 07:57:15;;;;;;;5.03;1.52;;;;;;;36.14;32.12;100875.44;5010652;28;20057;-70
2021/08/08 07:59:42;;;;;;;6.53;2.10;;;;;;;36.29;31.91;100879.59;5010151;28;20042;-71
2021/08/08 08:02:11;;;;;;;6.35;1.50;;;;;;;36.32;31.53;100884.81;5026250;28;20120;-69
2021/08/08 08:04:38;;;;;;;7.55;1.60;;;;;;;36.19;32.20;100900.66;5009112;28;20061;-70
2021/08/08 08:07:05;;;;;;;7.55;1.67;;;;;;;36.29;32.02;100910.72;5016445;28;20046;-71
2021/08/08 08:09:33;;;;;;;3.75;1.67;;;;;;;36.36;31.96;100910.19;5025651;28;20049;-70
2021/08/08 08:12:00;;;;;;;12.20;1.63;;;;;;;36.54;31.82;100903.00;5031467;28;20041;-70
2021/08/08 08:14:28;;;;;;;5.32;1.10;;;;;;;36.50;31.74;100894.13;5027707;28;20395;-70
2021/08/08 08:16:55;;;;;;;4.95;1.30;;;;;;;36.48;31.36;100887.06;5014962;28;20510;-72
2021/08/08 08:19:24;;;;;;;7.20;1.48;;;;;;;36.59;32.05;100896.06;5019013;28;20051;-72
2021/08/08 08:21:51;;;;;;;5.47;1.42;;;;;;;36.61;31.89;100893.19;5020135;28;20421;-73
2021/08/08 08:24:19;;;;;;;6.07;1.58;;;;;;;36.35;32.43;100890.03;5006957;28;20045;-73
2021/08/08 08:26:46;;;;;;;9.45;1.20;;;;;;;36.37;32.11;100889.88;5029415;28;20052;-73
2021/08/08 08:29:14;;;;;;;7.47;1.58;;;;;;;36.36;31.77;100900.03;5030236;28;20056;-73
2021/08/08 08:31:41;;;;;;;10.90;1.45;;;;;;;36.41;31.28;100895.00;5025951;28;20053;-72
2021/08/08 08:34:08;;;;;;;8.52;1.63;;;;;;;36.33;30.83;100916.81;5021511;28;20424;-72
2021/08/08 08:36:37;;;;;;;6.13;1.13;;;;;;;36.37;31.03;100901.75;5010202;28;20447;-72
2021/08/08 08:39:05;;;;;;;4.93;1.30;;;;;;;36.43;31.17;100906.69;5009762;28;20518;-73
2021/08/08 08:41:33;;;;;;;6.63;1.30;;;;;;;36.63;30.84;100888.38;5002205;28;20045;-73
2021/08/08 08:44:02;;;;;;;4.90;1.30;;;;;;;36.72;30.62;100901.34;5012115;28;20037;-73
2021/08/08 08:46:30;;;;;;;5.35;1.20;;;;;;;36.72;30.39;100871.06;5011882;28;20439;-72
2021/08/08 08:48:58;;;;;;;6.32;1.20;;;;;;;36.56;30.55;100889.97;5010643;28;20055;-73
2021/08/08 08:51:28;;;;;;;5.75;0.90;;;;;;;36.64;30.33;100896.53;5023002;28;20050;-75
2021/08/08 08:54:00;;;;;;;3.13;1.00;;;;;;;36.58;29.53;100904.44;5029978;28;20275;-74
2021/08/08 08:56:29;;;;;;;5.28;1.02;;;;;;;36.60;30.13;100910.69;5015444;28;20514;-73
2021/08/08 08:58:57;;;;;;;7.35;1.15;;;;;;;36.69;29.93;100918.16;5017778;28;20046;-73
2021/08/08 09:01:25;;;;;;;7.30;1.20;;;;;;;36.86;30.04;100922.97;5017920;28;20045;-73
2021/08/08 09:03:52;;;;;;;5.72;1.23;;;;;;;36.99;28.89;100919.94;5010818;28;20050;-72
2021/08/08 09:06:19;;;;;;;4.32;1.00;;;;;;;37.01;29.13;100916.03;5010170;28;20053;-71
2021/08/08 09:08:46;;;;;;;4.65;1.23;;;;;;;36.89;28.95;100908.91;5009981;28;20038;-72
2021/08/08 09:11:15;;;;;;;5.60;1.45;;;;;;;37.02;29.45;100917.75;5013006;28;20411;-72
2021/08/08 09:13:51;;;;;;;4.10;1.13;;;;;;;37.19;29.02;100912.59;5009593;28;20041;-73
2021/08/08 09:16:19;;;;;;;3.35;0.95;;;;;;;37.06;28.83;100908.22;5009769;28;20050;-70
2021/08/08 09:18:50;;;;;;;5.70;1.15;;;;;;;37.02;29.11;100916.91;5028439;28;20049;-72
2021/08/08 09:21:18;;;;;;;3.65;1.00;;;;;;;36.89;29.21;100910.81;5027727;28;20037;-73
2021/08/08 09:23:50;;;;;;;6.60;1.00;;;;;;;36.90;29.55;100918.91;5018053;28;20038;-72
2021/08/08 09:26:28;;;;;;;5.05;0.98;;;;;;;37.02;29.65;100915.00;5010607;28;20045;-72
2021/08/08 09:29:05;;;;;;;5.72;0.85;;;;;;;36.89;29.22;100911.66;5022944;28;20065;-72
2021/08/08 09:31:40;;;;;;;5.30;1.13;;;;;;;36.85;29.79;100912.09;5027411;28;20068;-72
2021/08/08 09:34:08;;;;;;;6.30;1.10;;;;;;;36.93;29.79;100929.66;5029954;28;20049;-72
2021/08/08 09:36:42;;;;;;;3.20;0.90;;;;;;;36.91;29.89;100917.03;5029975;28;20034;-72
2021/08/08 09:39:10;;;;;;;6.55;1.42;;;;;;;36.94;29.83;100908.50;5022376;28;20057;-73
2021/08/08 09:41:39;;;;;;;3.45;1.17;;;;;;;37.01;28.76;100909.66;5026926;28;20050;-73
2021/08/08 09:44:08;;;;;;;5.60;1.30;;;;;;;36.96;29.34;100922.97;5026159;28;20065;-72
2021/08/08 09:46:36;;;;;;;5.97;1.38;;;;;;;37.04;29.47;100917.63;5016560;28;20041;-71
2021/08/08 09:49:13;;;;;;;6.03;1.10;;;;;;;37.15;29.79;100920.31;5026962;28;20038;-72
2021/08/08 09:51:51;;;;;;;5.70;1.15;;;;;;;37.10;29.28;100928.94;5008991;28;20037;-73
2021/08/08 09:54:19;;;;;;;5.95;1.02;;;;;;;37.07;29.54;100923.75;5016839;28;20042;-71
2021/08/08 09:56:57;;;;;;;5.40;1.55;;;;;;;36.94;29.17;100900.22;5013567;28;20438;-72
2021/08/08 09:59:25;;;;;;;2.45;1.10;;;;;;;36.68;29.68;100913.66;5023709;28;20037;-72
2021/08/08 10:01:53;;;;;;;7.18;1.77;;;;;;;36.72;30.22;100904.09;5015453;28;20064;-72
2021/08/08 10:04:20;;;;;;;4.82;1.17;;;;;;;36.65;29.97;100911.16;5004443;28;20049;-71
2021/08/08 10:06:48;;;;;;;3.40;0.95;;;;;;;36.40;30.15;100900.63;5014376;28;20057;-71
2021/08/08 10:09:18;;;;;;;7.65;1.10;;;;;;;36.43;29.68;100912.22;4991913;28;20046;-72
2021/08/08 10:11:50;;;;;;;7.53;1.10;;;;;;;36.40;29.32;100915.25;5005987;28;20508;-72
2021/08/08 10:14:18;;;;;;;2.78;1.00;;;;;;;36.43;29.25;100919.63;5009548;28;20134;-71
2021/08/08 10:16:47;;;;;;;6.72;1.17;;;;;;;36.31;29.88;100925.19;5014584;28;20045;-72
2021/08/08 10:19:19;;;;;;;6.82;1.20;;;;;;;36.38;30.38;100930.13;5013099;28;20560;-71
2021/08/08 10:21:47;;;;;;;2.70;0.80;;;;;;;36.24;30.15;100932.25;4994804;28;20042;-72
2021/08/08 10:24:19;;;;;;;4.78;0.93;;;;;;;36.07;30.89;100935.59;5016403;28;20038;-71
2021/08/08 10:26:48;;;;;;;3.70;0.82;;;;;;;35.97;31.41;100911.81;5012439;28;20100;-71
2021/08/08 10:29:15;;;;;;;6.35;1.13;;;;;;;35.85;32.08;100911.00;5012284;28;20049;-72
2021/08/08 10:31:44;;;;;;;3.38;1.00;;;;;;;35.73;32.26;100920.34;5012344;28;20057;-71
2021/08/08 10:34:12;;;;;;;3.97;1.10;;;;;;;35.65;32.42;100933.81;5017310;28;20467;-71
2021/08/08 10:36:40;;;;;;;5.82;1.00;;;;;;;35.61;32.55;100944.22;5012436;28;20057;-70
2021/08/08 10:39:11;;;;;;;5.70;1.20;;;;;;;35.65;32.61;100939.31;5017518;28;20107;-70
2021/08/08 10:41:39;;;;;;;5.47;1.35;;;;;;;35.61;32.51;100943.34;5012992;28;20053;-71
2021/08/08 10:44:10;;;;;;;2.42;0.88;;;;;;;35.64;32.31;100930.25;5012609;28;20041;-72
2021/08/08 10:46:46;;;;;;;6.97;1.05;;;;;;;35.61;32.09;100935.97;5012500;28;20042;-71
2021/08/08 10:49:13;;;;;;;4.13;1.10;;;;;;;35.58;32.40;100923.38;5011884;28;20152;-71
2021/08/08 10:51:41;;;;;;;3.30;0.98;;;;;;;35.51;31.99;100927.66;5012027;28;20054;-71
2021/08/08 10:54:10;;;;;;;3.25;1.08;;;;;;;35.44;32.04;100915.47;5010167;28;20046;-71
2021/08/08 10:56:45;;;;;;;5.68;1.08;;;;;;;35.42;32.02;100898.25;5010092;28;20539;-71
2021/08/08 10:59:16;;;;;;;3.78;1.27;;;;;;;35.43;31.64;100926.59;5011079;28;20038;-71
2021/08/08 11:01:44;;;;;;;4.32;0.93;;;;;;;35.35;31.82;100908.03;5011470;28;20049;-71
2021/08/08 11:04:11;;;;;;;5.28;1.00;;;;;;;35.44;31.33;100906.38;5011439;28;20523;-70
2021/08/08 11:06:41;;;;;;;4.30;1.38;;;;;;;35.44;31.51;100931.97;5011867;28;20064;-71
2021/08/08 11:09:08;;;;;;;6.53;1.33;;;;;;;35.49;31.57;100929.69;5011625;28;20553;-71
2021/08/08 11:11:38;;;;;;;3.40;1.40;;;;;;;35.68;31.54;100937.19;5011448;28;20399;-70
2021/08/08 11:14:12;;;;;;;6.28;1.20;;;;;;;35.70;31.03;100939.84;5011325;28;20048;-71
2021/08/08 11:16:42;;;;;;;4.13;1.10;;;;;;;35.87;31.17;100934.63;5011646;28;20057;-71
2021/08/08 11:19:10;;;;;;;4.38;1.10;;;;;;;36.02;30.94;100945.28;5012044;28;20376;-71
2021/08/08 11:21:38;;;;;;;2.90;0.95;;;;;;;35.99;31.04;100938.16;5012240;28;20084;-71
2021/08/08 11:24:09;;;;;;;6.13;1.20;;;;;;;36.10;31.16;100950.97;5009414;28;20038;-71
2021/08/08 11:26:36;;;;;;;8.35;1.48;;;;;;;36.17;31.09;100931.06;5011242;28;20612;-71
2021/08/08 11:29:06;;;;;;;5.78;1.10;;;;;;;36.22;30.42;100936.16;5011525;28;20806;-71